sensor_id;sensor_type;location;lat;lon;timestamp;P1;durP1;ratioP1;P2;durP2;ratioP2
56122;SDS011;42426;46.104;19.656;2023-09-12T08:55:35;28.85;;;7.78;;
56122;SDS011;42426;46.104;19.656;2023-09-12T08:58:02;13.38;;;6.78;;
56122;SDS011;42426;46.104;19.656;2023-09-12T09:00:28;10.93;;;6.47;;
56122;SDS011;42426;46.104;19.656;2023-09-12T09:02:55;14.82;;;6.97;;
56122;SDS011;42426;46.104;19.656;2023-09-12T09:05:22;13.05;;;6.90;;
56122;SDS011;42426;46.104;19.656;2023-09-12T09:07:48;16.38;;;7.55;;
56122;SDS011;42426;46.104;19.656;2023-09-12T09:10:15;16.08;;;6.07;;
56122;SDS011;42426;46.104;19.656;2023-09-12T09:12:43;15.68;;;6.72;;
56122;SDS011;42426;46.104;19.656;2023-09-12T09:15:21;15.82;;;5.85;;
56122;SDS011;42426;46.104;19.656;2023-09-12T09:17:48;15.35;;;5.97;;
56122;SDS011;42426;46.104;19.656;2023-09-12T09:20:27;11.88;;;6.43;;
56122;SDS011;42426;46.104;19.656;2023-09-12T09:22:57;24.10;;;6.25;;
56122;SDS011;42426;46.104;19.656;2023-09-12T09:25:23;13.02;;;5.65;;
56122;SDS011;42426;46.104;19.656;2023-09-12T09:27:49;20.67;;;6.28;;
56122;SDS011;42426;46.104;19.656;2023-09-12T09:30:15;14.13;;;7.15;;
56122;SDS011;42426;46.104;19.656;2023-09-12T09:32:43;10.68;;;6.10;;
56122;SDS011;42426;46.104;19.656;2023-09-12T09:35:10;12.85;;;5.65;;
56122;SDS011;42426;46.104;19.656;2023-09-12T09:37:37;13.70;;;5.95;;
56122;SDS011;42426;46.104;19.656;2023-09-12T09:40:06;21.48;;;7.35;;
56122;SDS011;42426;46.104;19.656;2023-09-12T09:42:33;25.58;;;7.18;;
56122;SDS011;42426;46.104;19.656;2023-09-12T09:44:59;16.33;;;6.65;;
56122;SDS011;42426;46.104;19.656;2023-09-12T09:47:26;20.58;;;6.78;;
56122;SDS011;42426;46.104;19.656;2023-09-12T09:49:52;11.70;;;6.20;;
56122;SDS011;42426;46.104;19.656;2023-09-12T09:52:24;11.60;;;6.07;;
56122;SDS011;42426;46.104;19.656;2023-09-12T09:54:52;13.57;;;6.03;;
56122;SDS011;42426;46.104;19.656;2023-09-12T09:57:18;11.45;;;6.18;;
56122;SDS011;42426;46.104;19.656;2023-09-12T09:59:48;9.25;;;6.40;;
56122;SDS011;42426;46.104;19.656;2023-09-12T10:02:16;16.95;;;6.45;;
56122;SDS011;42426;46.104;19.656;2023-09-12T10:04:47;21.92;;;7.15;;
56122;SDS011;42426;46.104;19.656;2023-09-12T10:07:14;11.38;;;5.63;;
56122;SDS011;42426;46.104;19.656;2023-09-12T10:09:41;17.40;;;6.00;;
56122;SDS011;42426;46.104;19.656;2023-09-12T10:12:08;11.98;;;6.00;;
56122;SDS011;42426;46.104;19.656;2023-09-12T10:14:35;17.27;;;6.50;;
56122;SDS011;42426;46.104;19.656;2023-09-12T10:17:02;14.80;;;7.40;;
56122;SDS011;42426;46.104;19.656;2023-09-12T10:19:46;13.00;;;6.88;;
56122;SDS011;42426;46.104;19.656;2023-09-12T10:22:16;8.63;;;5.90;;
56122;SDS011;42426;46.104;19.656;2023-09-12T10:24:43;10.23;;;5.93;;
56122;SDS011;42426;46.104;19.656;2023-09-12T10:27:09;13.25;;;6.10;;
56122;SDS011;42426;46.104;19.656;2023-09-12T10:29:36;16.70;;;6.68;;
56122;SDS011;42426;46.104;19.656;2023-09-12T10:32:03;15.77;;;6.15;;
56122;SDS011;42426;46.104;19.656;2023-09-12T10:34:30;12.68;;;6.15;;
56122;SDS011;42426;46.104;19.656;2023-09-12T10:36:58;10.48;;;6.28;;
56122;SDS011;42426;46.104;19.656;2023-09-12T10:39:29;14.65;;;5.55;;
56122;SDS011;42426;46.104;19.656;2023-09-12T10:41:56;8.55;;;5.63;;
56122;SDS011;42426;46.104;19.656;2023-09-12T11:13:38;18.30;;;6.25;;
56122;SDS011;42426;46.104;19.656;2023-09-12T11:18:33;10.32;;;5.45;;
56122;SDS011;42426;46.104;19.656;2023-09-12T11:21:00;12.55;;;5.95;;
56122;SDS011;42426;46.104;19.656;2023-09-12T11:23:29;13.27;;;5.70;;
56122;SDS011;42426;46.104;19.656;2023-09-12T11:26:06;13.65;;;5.85;;
56122;SDS011;42426;46.104;19.656;2023-09-12T11:28:32;14.57;;;7.30;;
56122;SDS011;42426;46.104;19.656;2023-09-12T11:30:58;13.73;;;5.18;;
56122;SDS011;42426;46.104;19.656;2023-09-12T11:33:25;9.45;;;5.55;;
56122;SDS011;42426;46.104;19.656;2023-09-12T11:35:54;11.13;;;5.95;;
56122;SDS011;42426;46.104;19.656;2023-09-12T11:38:29;7.90;;;5.18;;
56122;SDS011;42426;46.104;19.656;2023-09-12T11:43:22;11.43;;;5.20;;
56122;SDS011;42426;46.104;19.656;2023-09-12T11:45:49;17.08;;;6.72;;
56122;SDS011;42426;46.104;19.656;2023-09-12T11:48:16;21.85;;;7.15;;
56122;SDS011;42426;46.104;19.656;2023-09-12T11:50:42;12.13;;;5.50;;
56122;SDS011;42426;46.104;19.656;2023-09-12T11:53:14;14.95;;;6.82;;
56122;SDS011;42426;46.104;19.656;2023-09-12T11:55:44;9.50;;;5.30;;
56122;SDS011;42426;46.104;19.656;2023-09-12T11:58:10;16.65;;;5.93;;
56122;SDS011;42426;46.104;19.656;2023-09-12T12:00:37;15.35;;;5.93;;
56122;SDS011;42426;46.104;19.656;2023-09-12T12:05:29;12.55;;;5.53;;
56122;SDS011;42426;46.104;19.656;2023-09-12T12:07:55;21.70;;;4.82;;
56122;SDS011;42426;46.104;19.656;2023-09-12T12:10:23;11.30;;;4.90;;
56122;SDS011;42426;46.104;19.656;2023-09-12T12:12:52;16.48;;;5.55;;
56122;SDS011;42426;46.104;19.656;2023-09-12T12:15:18;13.23;;;5.07;;
56122;SDS011;42426;46.104;19.656;2023-09-12T12:17:44;15.82;;;5.95;;
56122;SDS011;42426;46.104;19.656;2023-09-12T12:20:10;11.10;;;6.47;;
56122;SDS011;42426;46.104;19.656;2023-09-12T12:22:37;16.10;;;5.70;;
56122;SDS011;42426;46.104;19.656;2023-09-12T12:25:08;12.80;;;6.22;;
56122;SDS011;42426;46.104;19.656;2023-09-12T12:27:35;11.13;;;5.88;;
56122;SDS011;42426;46.104;19.656;2023-09-12T12:30:08;12.68;;;5.03;;
56122;SDS011;42426;46.104;19.656;2023-09-12T12:32:41;9.73;;;5.72;;
56122;SDS011;42426;46.104;19.656;2023-09-12T12:35:18;13.50;;;4.72;;
56122;SDS011;42426;46.104;19.656;2023-09-12T12:37:44;10.60;;;5.22;;
56122;SDS011;42426;46.104;19.656;2023-09-12T12:40:13;11.45;;;5.32;;
56122;SDS011;42426;46.104;19.656;2023-09-12T12:42:40;10.23;;;5.43;;
56122;SDS011;42426;46.104;19.656;2023-09-12T12:45:13;12.07;;;5.05;;
56122;SDS011;42426;46.104;19.656;2023-09-12T12:50:12;11.15;;;5.03;;
56122;SDS011;42426;46.104;19.656;2023-09-12T12:52:40;15.23;;;5.65;;
56122;SDS011;42426;46.104;19.656;2023-09-12T12:55:07;12.60;;;5.20;;
56122;SDS011;42426;46.104;19.656;2023-09-12T12:57:38;10.65;;;4.82;;
56122;SDS011;42426;46.104;19.656;2023-09-12T13:00:11;11.80;;;5.38;;
56122;SDS011;42426;46.104;19.656;2023-09-12T13:02:41;11.43;;;5.05;;
56122;SDS011;42426;46.104;19.656;2023-09-12T13:05:24;12.70;;;5.28;;
56122;SDS011;42426;46.104;19.656;2023-09-12T13:07:52;13.02;;;5.28;;
56122;SDS011;42426;46.104;19.656;2023-09-12T13:10:18;18.38;;;5.50;;
56122;SDS011;42426;46.104;19.656;2023-09-12T13:12:44;12.00;;;6.25;;
56122;SDS011;42426;46.104;19.656;2023-09-12T13:15:13;7.63;;;4.93;;
56122;SDS011;42426;46.104;19.656;2023-09-12T13:17:40;22.15;;;7.40;;
56122;SDS011;42426;46.104;19.656;2023-09-12T13:20:06;16.20;;;6.50;;
56122;SDS011;42426;46.104;19.656;2023-09-12T13:22:36;9.48;;;5.40;;
56122;SDS011;42426;46.104;19.656;2023-09-12T13:25:02;10.20;;;5.63;;
56122;SDS011;42426;46.104;19.656;2023-09-12T13:27:29;15.23;;;5.97;;
56122;SDS011;42426;46.104;19.656;2023-09-12T13:29:55;10.65;;;5.28;;
56122;SDS011;42426;46.104;19.656;2023-09-12T13:32:21;12.40;;;5.75;;
56122;SDS011;42426;46.104;19.656;2023-09-12T13:34:46;17.05;;;6.25;;
56122;SDS011;42426;46.104;19.656;2023-09-12T13:37:12;12.30;;;5.95;;
56122;SDS011;42426;46.104;19.656;2023-09-12T13:39:41;12.68;;;6.53;;
56122;SDS011;42426;46.104;19.656;2023-09-12T13:42:12;8.10;;;5.50;;
56122;SDS011;42426;46.104;19.656;2023-09-12T13:44:39;16.02;;;6.15;;
56122;SDS011;42426;46.104;19.656;2023-09-12T13:47:05;11.82;;;5.72;;
56122;SDS011;42426;46.104;19.656;2023-09-12T13:49:30;17.75;;;6.60;;
56122;SDS011;42426;46.104;19.656;2023-09-12T13:51:56;18.63;;;7.35;;
56122;SDS011;42426;46.104;19.656;2023-09-12T13:54:22;12.07;;;5.97;;
56122;SDS011;42426;46.104;19.656;2023-09-12T13:56:47;17.10;;;6.60;;
56122;SDS011;42426;46.104;19.656;2023-09-12T13:59:13;11.52;;;4.90;;
56122;SDS011;42426;46.104;19.656;2023-09-12T14:01:40;14.27;;;6.82;;
56122;SDS011;42426;46.104;19.656;2023-09-12T14:04:06;13.90;;;6.13;;
56122;SDS011;42426;46.104;19.656;2023-09-12T14:06:33;9.15;;;5.25;;
56122;SDS011;42426;46.104;19.656;2023-09-12T14:09:00;13.20;;;5.80;;
56122;SDS011;42426;46.104;19.656;2023-09-12T14:11:25;10.52;;;5.72;;
56122;SDS011;42426;46.104;19.656;2023-09-12T14:13:51;10.40;;;5.60;;
56122;SDS011;42426;46.104;19.656;2023-09-12T14:16:17;13.32;;;5.70;;
56122;SDS011;42426;46.104;19.656;2023-09-12T14:18:42;10.70;;;5.20;;
56122;SDS011;42426;46.104;19.656;2023-09-12T14:21:08;10.32;;;5.88;;
56122;SDS011;42426;46.104;19.656;2023-09-12T14:23:34;11.20;;;5.90;;
56122;SDS011;42426;46.104;19.656;2023-09-12T14:25:59;14.30;;;6.03;;
56122;SDS011;42426;46.104;19.656;2023-09-12T14:28:25;9.32;;;5.72;;
56122;SDS011;42426;46.104;19.656;2023-09-12T14:30:53;12.65;;;5.53;;
56122;SDS011;42426;46.104;19.656;2023-09-12T14:33:19;12.52;;;5.22;;
56122;SDS011;42426;46.104;19.656;2023-09-12T14:35:46;9.60;;;5.80;;
56122;SDS011;42426;46.104;19.656;2023-09-12T14:38:12;15.85;;;6.65;;
56122;SDS011;42426;46.104;19.656;2023-09-12T14:40:38;11.05;;;6.65;;
56122;SDS011;42426;46.104;19.656;2023-09-12T14:43:04;11.50;;;6.53;;
56122;SDS011;42426;46.104;19.656;2023-09-12T14:45:30;12.93;;;5.32;;
56122;SDS011;42426;46.104;19.656;2023-09-12T14:47:58;10.40;;;5.50;;
56122;SDS011;42426;46.104;19.656;2023-09-12T14:50:23;12.48;;;5.57;;
56122;SDS011;42426;46.104;19.656;2023-09-12T14:52:50;12.43;;;6.45;;
56122;SDS011;42426;46.104;19.656;2023-09-12T14:55:16;13.13;;;5.90;;
56122;SDS011;42426;46.104;19.656;2023-09-12T14:57:42;16.10;;;6.00;;
56122;SDS011;42426;46.104;19.656;2023-09-12T15:00:09;10.27;;;5.22;;
56122;SDS011;42426;46.104;19.656;2023-09-12T15:02:36;18.25;;;6.40;;
56122;SDS011;42426;46.104;19.656;2023-09-12T15:05:02;14.90;;;5.68;;
56122;SDS011;42426;46.104;19.656;2023-09-12T15:07:28;12.27;;;5.97;;
56122;SDS011;42426;46.104;19.656;2023-09-12T15:09:55;10.25;;;5.68;;
56122;SDS011;42426;46.104;19.656;2023-09-12T15:12:21;10.57;;;6.03;;
56122;SDS011;42426;46.104;19.656;2023-09-12T15:14:47;9.68;;;5.20;;
56122;SDS011;42426;46.104;19.656;2023-09-12T15:17:14;10.73;;;5.68;;
56122;SDS011;42426;46.104;19.656;2023-09-12T15:19:40;12.52;;;6.30;;
56122;SDS011;42426;46.104;19.656;2023-09-12T15:22:06;13.00;;;6.80;;
56122;SDS011;42426;46.104;19.656;2023-09-12T15:24:32;11.35;;;6.65;;
56122;SDS011;42426;46.104;19.656;2023-09-12T15:26:57;13.75;;;6.07;;
56122;SDS011;42426;46.104;19.656;2023-09-12T15:29:23;15.15;;;6.25;;
56122;SDS011;42426;46.104;19.656;2023-09-12T15:31:49;17.33;;;6.25;;
56122;SDS011;42426;46.104;19.656;2023-09-12T15:34:14;10.27;;;6.07;;
56122;SDS011;42426;46.104;19.656;2023-09-12T15:36:47;14.30;;;5.85;;
56122;SDS011;42426;46.104;19.656;2023-09-12T15:39:13;18.00;;;7.45;;
56122;SDS011;42426;46.104;19.656;2023-09-12T15:41:39;17.02;;;6.28;;
56122;SDS011;42426;46.104;19.656;2023-09-12T15:44:05;19.38;;;7.03;;
56122;SDS011;42426;46.104;19.656;2023-09-12T15:46:31;16.20;;;6.68;;
56122;SDS011;42426;46.104;19.656;2023-09-12T15:48:57;20.20;;;6.90;;
56122;SDS011;42426;46.104;19.656;2023-09-12T15:51:23;20.67;;;7.20;;
56122;SDS011;42426;46.104;19.656;2023-09-12T15:53:49;20.67;;;7.63;;
56122;SDS011;42426;46.104;19.656;2023-09-12T15:56:15;24.33;;;8.40;;
56122;SDS011;42426;46.104;19.656;2023-09-12T15:58:40;23.35;;;9.35;;
56122;SDS011;42426;46.104;19.656;2023-09-12T16:01:11;22.60;;;8.38;;
56122;SDS011;42426;46.104;19.656;2023-09-12T16:03:37;17.10;;;7.68;;
56122;SDS011;42426;46.104;19.656;2023-09-12T16:06:03;17.98;;;6.88;;
56122;SDS011;42426;46.104;19.656;2023-09-12T16:08:29;22.73;;;7.10;;
56122;SDS011;42426;46.104;19.656;2023-09-12T16:10:54;17.42;;;7.03;;
56122;SDS011;42426;46.104;19.656;2023-09-12T16:13:20;14.73;;;6.63;;
56122;SDS011;42426;46.104;19.656;2023-09-12T16:15:46;19.77;;;7.93;;
56122;SDS011;42426;46.104;19.656;2023-09-12T16:18:11;19.00;;;8.98;;
56122;SDS011;42426;46.104;19.656;2023-09-12T16:20:38;16.02;;;7.03;;
56122;SDS011;42426;46.104;19.656;2023-09-12T16:23:04;16.85;;;7.50;;
56122;SDS011;42426;46.104;19.656;2023-09-12T16:25:29;21.08;;;8.43;;
56122;SDS011;42426;46.104;19.656;2023-09-12T16:27:55;19.60;;;8.30;;
56122;SDS011;42426;46.104;19.656;2023-09-12T16:30:21;23.05;;;7.97;;
56122;SDS011;42426;46.104;19.656;2023-09-12T16:32:47;20.90;;;8.95;;
56122;SDS011;42426;46.104;19.656;2023-09-12T16:35:13;35.63;;;9.55;;
56122;SDS011;42426;46.104;19.656;2023-09-12T16:37:39;29.23;;;9.48;;
56122;SDS011;42426;46.104;19.656;2023-09-12T16:40:06;32.20;;;10.80;;
56122;SDS011;42426;46.104;19.656;2023-09-12T16:42:33;36.85;;;11.15;;
56122;SDS011;42426;46.104;19.656;2023-09-12T16:45:00;44.38;;;12.82;;
56122;SDS011;42426;46.104;19.656;2023-09-12T16:47:27;34.25;;;10.60;;
56122;SDS011;42426;46.104;19.656;2023-09-12T16:49:54;31.52;;;11.05;;
56122;SDS011;42426;46.104;19.656;2023-09-12T16:52:21;30.60;;;11.40;;
56122;SDS011;42426;46.104;19.656;2023-09-12T16:54:47;40.70;;;12.02;;
56122;SDS011;42426;46.104;19.656;2023-09-12T16:57:13;31.60;;;10.95;;
56122;SDS011;42426;46.104;19.656;2023-09-12T16:59:42;36.80;;;10.98;;
56122;SDS011;42426;46.104;19.656;2023-09-12T17:02:10;19.27;;;9.80;;
56122;SDS011;42426;46.104;19.656;2023-09-12T17:04:37;25.55;;;11.23;;
56122;SDS011;42426;46.104;19.656;2023-09-12T17:07:05;24.40;;;10.70;;
56122;SDS011;42426;46.104;19.656;2023-09-12T17:09:32;22.92;;;10.02;;
56122;SDS011;42426;46.104;19.656;2023-09-12T17:11:57;25.02;;;10.63;;
56122;SDS011;42426;46.104;19.656;2023-09-12T17:14:23;23.35;;;10.13;;
56122;SDS011;42426;46.104;19.656;2023-09-12T17:16:49;35.75;;;10.43;;
56122;SDS011;42426;46.104;19.656;2023-09-12T17:19:15;26.88;;;11.40;;
56122;SDS011;42426;46.104;19.656;2023-09-12T17:21:40;33.67;;;11.02;;
56122;SDS011;42426;46.104;19.656;2023-09-12T17:24:06;28.40;;;10.65;;
56122;SDS011;42426;46.104;19.656;2023-09-12T17:26:32;32.05;;;11.57;;
56122;SDS011;42426;46.104;19.656;2023-09-12T17:28:58;36.35;;;12.00;;
56122;SDS011;42426;46.104;19.656;2023-09-12T17:31:24;33.80;;;11.13;;
56122;SDS011;42426;46.104;19.656;2023-09-12T17:33:51;34.05;;;13.02;;
56122;SDS011;42426;46.104;19.656;2023-09-12T17:36:17;41.67;;;10.23;;
56122;SDS011;42426;46.104;19.656;2023-09-12T17:38:44;33.35;;;10.95;;
56122;SDS011;42426;46.104;19.656;2023-09-12T17:41:10;40.30;;;12.35;;
56122;SDS011;42426;46.104;19.656;2023-09-12T17:43:36;26.73;;;10.60;;
56122;SDS011;42426;46.104;19.656;2023-09-12T17:46:02;29.33;;;12.25;;
56122;SDS011;42426;46.104;19.656;2023-09-12T17:48:28;24.70;;;12.15;;
56122;SDS011;42426;46.104;19.656;2023-09-12T17:50:54;33.60;;;13.32;;
56122;SDS011;42426;46.104;19.656;2023-09-12T17:53:19;24.83;;;12.02;;
56122;SDS011;42426;46.104;19.656;2023-09-12T17:55:47;30.05;;;12.00;;
56122;SDS011;42426;46.104;19.656;2023-09-12T17:58:15;24.88;;;10.82;;
56122;SDS011;42426;46.104;19.656;2023-09-12T18:00:41;25.27;;;11.50;;
56122;SDS011;42426;46.104;19.656;2023-09-12T18:03:06;28.48;;;11.35;;
56122;SDS011;42426;46.104;19.656;2023-09-12T18:05:32;32.20;;;13.05;;
56122;SDS011;42426;46.104;19.656;2023-09-12T18:07:58;28.77;;;11.80;;
56122;SDS011;42426;46.104;19.656;2023-09-12T18:10:24;21.38;;;9.80;;
56122;SDS011;42426;46.104;19.656;2023-09-12T18:12:52;38.03;;;12.10;;
56122;SDS011;42426;46.104;19.656;2023-09-12T18:15:18;37.42;;;12.50;;
56122;SDS011;42426;46.104;19.656;2023-09-12T18:17:44;31.92;;;11.63;;
56122;SDS011;42426;46.104;19.656;2023-09-12T18:20:10;22.80;;;10.98;;
56122;SDS011;42426;46.104;19.656;2023-09-12T18:22:36;24.75;;;9.35;;
56122;SDS011;42426;46.104;19.656;2023-09-12T18:25:02;19.02;;;9.82;;
56122;SDS011;42426;46.104;19.656;2023-09-12T18:27:28;30.35;;;11.52;;
56122;SDS011;42426;46.104;19.656;2023-09-12T18:29:54;22.23;;;12.95;;
56122;SDS011;42426;46.104;19.656;2023-09-12T18:32:20;29.92;;;14.15;;
56122;SDS011;42426;46.104;19.656;2023-09-12T18:34:47;31.65;;;14.02;;
56122;SDS011;42426;46.104;19.656;2023-09-12T18:37:13;39.67;;;15.57;;
56122;SDS011;42426;46.104;19.656;2023-09-12T18:39:41;26.08;;;15.32;;
56122;SDS011;42426;46.104;19.656;2023-09-12T18:42:08;36.72;;;15.48;;
56122;SDS011;42426;46.104;19.656;2023-09-12T18:44:36;36.88;;;15.38;;
56122;SDS011;42426;46.104;19.656;2023-09-12T18:47:02;42.47;;;16.85;;
56122;SDS011;42426;46.104;19.656;2023-09-12T18:49:28;36.33;;;15.95;;
56122;SDS011;42426;46.104;19.656;2023-09-12T18:51:54;30.38;;;15.40;;
56122;SDS011;42426;46.104;19.656;2023-09-12T18:54:20;40.17;;;18.00;;
56122;SDS011;42426;46.104;19.656;2023-09-12T18:56:47;32.63;;;15.27;;
56122;SDS011;42426;46.104;19.656;2023-09-12T18:59:15;35.90;;;15.07;;
56122;SDS011;42426;46.104;19.656;2023-09-12T19:01:41;38.85;;;17.35;;
56122;SDS011;42426;46.104;19.656;2023-09-12T19:04:27;37.30;;;17.05;;
56122;SDS011;42426;46.104;19.656;2023-09-12T19:06:58;34.58;;;16.23;;
56122;SDS011;42426;46.104;19.656;2023-09-12T19:09:24;32.75;;;13.80;;
56122;SDS011;42426;46.104;19.656;2023-09-12T19:11:51;31.95;;;13.43;;
56122;SDS011;42426;46.104;19.656;2023-09-12T19:14:17;26.80;;;14.32;;
56122;SDS011;42426;46.104;19.656;2023-09-12T19:16:44;32.45;;;14.80;;
56122;SDS011;42426;46.104;19.656;2023-09-12T19:19:10;35.03;;;14.57;;
56122;SDS011;42426;46.104;19.656;2023-09-12T19:21:36;34.45;;;14.25;;
56122;SDS011;42426;46.104;19.656;2023-09-12T19:24:03;30.27;;;14.13;;
56122;SDS011;42426;46.104;19.656;2023-09-12T19:26:30;35.97;;;15.52;;
56122;SDS011;42426;46.104;19.656;2023-09-12T19:28:59;39.35;;;13.82;;
56122;SDS011;42426;46.104;19.656;2023-09-12T19:31:26;34.70;;;14.60;;
56122;SDS011;42426;46.104;19.656;2023-09-12T19:33:52;30.92;;;13.50;;
56122;SDS011;42426;46.104;19.656;2023-09-12T19:36:18;32.42;;;14.27;;
56122;SDS011;42426;46.104;19.656;2023-09-12T19:38:44;29.75;;;13.88;;
56122;SDS011;42426;46.104;19.656;2023-09-12T19:41:11;28.27;;;14.45;;
56122;SDS011;42426;46.104;19.656;2023-09-12T19:43:37;33.63;;;14.20;;
56122;SDS011;42426;46.104;19.656;2023-09-12T19:46:03;33.00;;;15.13;;
56122;SDS011;42426;46.104;19.656;2023-09-12T19:48:30;35.53;;;13.95;;
56122;SDS011;42426;46.104;19.656;2023-09-12T19:50:56;30.13;;;14.35;;
56122;SDS011;42426;46.104;19.656;2023-09-12T19:53:23;28.75;;;13.82;;
56122;SDS011;42426;46.104;19.656;2023-09-12T19:55:54;32.53;;;13.95;;
56122;SDS011;42426;46.104;19.656;2023-09-12T19:58:20;21.63;;;11.90;;
56122;SDS011;42426;46.104;19.656;2023-09-12T20:00:47;28.65;;;11.82;;
56122;SDS011;42426;46.104;19.656;2023-09-12T20:03:16;38.75;;;14.35;;
56122;SDS011;42426;46.104;19.656;2023-09-12T20:05:44;24.30;;;11.60;;
56122;SDS011;42426;46.104;19.656;2023-09-12T20:08:11;37.22;;;13.18;;
56122;SDS011;42426;46.104;19.656;2023-09-12T20:10:40;21.65;;;10.05;;
56122;SDS011;42426;46.104;19.656;2023-09-12T20:13:10;28.85;;;11.18;;
56122;SDS011;42426;46.104;19.656;2023-09-12T20:15:36;27.80;;;12.73;;
56122;SDS011;42426;46.104;19.656;2023-09-12T20:20:31;28.88;;;10.60;;
56122;SDS011;42426;46.104;19.656;2023-09-12T20:22:59;34.97;;;11.45;;
56122;SDS011;42426;46.104;19.656;2023-09-12T20:25:25;27.15;;;11.50;;
56122;SDS011;42426;46.104;19.656;2023-09-12T20:27:51;32.25;;;11.55;;
56122;SDS011;42426;46.104;19.656;2023-09-12T20:30:17;33.28;;;11.52;;
56122;SDS011;42426;46.104;19.656;2023-09-12T20:32:46;29.02;;;11.45;;
56122;SDS011;42426;46.104;19.656;2023-09-12T20:35:12;24.23;;;10.07;;
56122;SDS011;42426;46.104;19.656;2023-09-12T20:37:38;22.27;;;9.82;;
56122;SDS011;42426;46.104;19.656;2023-09-12T20:40:05;24.48;;;10.13;;
56122;SDS011;42426;46.104;19.656;2023-09-12T20:42:32;26.23;;;10.13;;
56122;SDS011;42426;46.104;19.656;2023-09-12T20:44:58;23.55;;;10.05;;
56122;SDS011;42426;46.104;19.656;2023-09-12T20:47:26;23.50;;;10.68;;
56122;SDS011;42426;46.104;19.656;2023-09-12T20:49:52;22.85;;;10.02;;
56122;SDS011;42426;46.104;19.656;2023-09-12T20:52:21;25.30;;;10.38;;
56122;SDS011;42426;46.104;19.656;2023-09-12T20:54:47;18.23;;;9.30;;
56122;SDS011;42426;46.104;19.656;2023-09-12T20:57:13;28.13;;;10.25;;
56122;SDS011;42426;46.104;19.656;2023-09-12T20:59:39;25.00;;;9.93;;
56122;SDS011;42426;46.104;19.656;2023-09-12T21:02:05;23.70;;;10.07;;
56122;SDS011;42426;46.104;19.656;2023-09-12T21:04:32;27.20;;;10.40;;
56122;SDS011;42426;46.104;19.656;2023-09-12T21:06:58;22.77;;;9.57;;
56122;SDS011;42426;46.104;19.656;2023-09-12T21:09:25;26.80;;;11.02;;
56122;SDS011;42426;46.104;19.656;2023-09-12T21:11:51;18.48;;;8.45;;
56122;SDS011;42426;46.104;19.656;2023-09-12T21:14:19;20.73;;;9.38;;
56122;SDS011;42426;46.104;19.656;2023-09-12T21:16:45;21.52;;;9.07;;
56122;SDS011;42426;46.104;19.656;2023-09-12T21:19:12;19.33;;;9.43;;
56122;SDS011;42426;46.104;19.656;2023-09-12T21:21:38;23.42;;;9.05;;
56122;SDS011;42426;46.104;19.656;2023-09-12T21:24:04;28.35;;;9.63;;
56122;SDS011;42426;46.104;19.656;2023-09-12T21:26:30;22.00;;;10.20;;
56122;SDS011;42426;46.104;19.656;2023-09-12T21:28:56;21.40;;;9.77;;
56122;SDS011;42426;46.104;19.656;2023-09-12T21:31:22;25.00;;;10.98;;
56122;SDS011;42426;46.104;19.656;2023-09-12T21:33:48;23.13;;;11.32;;
56122;SDS011;42426;46.104;19.656;2023-09-12T21:36:14;21.55;;;10.48;;
56122;SDS011;42426;46.104;19.656;2023-09-12T21:38:40;21.90;;;8.85;;
56122;SDS011;42426;46.104;19.656;2023-09-12T21:41:06;18.73;;;9.25;;
56122;SDS011;42426;46.104;19.656;2023-09-12T21:43:32;19.70;;;9.35;;
56122;SDS011;42426;46.104;19.656;2023-09-12T21:45:58;20.55;;;9.35;;
56122;SDS011;42426;46.104;19.656;2023-09-12T21:48:24;22.23;;;9.38;;
56122;SDS011;42426;46.104;19.656;2023-09-12T21:50:50;34.33;;;11.80;;
56122;SDS011;42426;46.104;19.656;2023-09-12T21:53:18;24.10;;;9.50;;
56122;SDS011;42426;46.104;19.656;2023-09-12T21:55:47;27.80;;;11.32;;
56122;SDS011;42426;46.104;19.656;2023-09-12T21:58:13;20.73;;;10.50;;
56122;SDS011;42426;46.104;19.656;2023-09-12T22:00:39;14.45;;;8.55;;
56122;SDS011;42426;46.104;19.656;2023-09-12T22:03:07;22.13;;;10.35;;
56122;SDS011;42426;46.104;19.656;2023-09-12T22:05:33;23.73;;;10.02;;
56122;SDS011;42426;46.104;19.656;2023-09-12T22:08:02;23.80;;;9.75;;
56122;SDS011;42426;46.104;19.656;2023-09-12T22:10:28;19.35;;;9.73;;
56122;SDS011;42426;46.104;19.656;2023-09-12T22:12:54;17.08;;;9.13;;
56122;SDS011;42426;46.104;19.656;2023-09-12T22:15:21;23.88;;;10.13;;
56122;SDS011;42426;46.104;19.656;2023-09-12T22:17:47;26.10;;;10.48;;
56122;SDS011;42426;46.104;19.656;2023-09-12T22:20:13;18.75;;;9.55;;
56122;SDS011;42426;46.104;19.656;2023-09-12T22:22:43;19.80;;;9.65;;
56122;SDS011;42426;46.104;19.656;2023-09-12T22:25:10;28.02;;;10.50;;
56122;SDS011;42426;46.104;19.656;2023-09-12T22:27:37;22.17;;;9.88;;
56122;SDS011;42426;46.104;19.656;2023-09-12T22:30:04;21.30;;;10.70;;
56122;SDS011;42426;46.104;19.656;2023-09-12T22:32:30;22.73;;;9.75;;
56122;SDS011;42426;46.104;19.656;2023-09-12T22:34:56;20.05;;;8.95;;
56122;SDS011;42426;46.104;19.656;2023-09-12T22:37:22;20.88;;;8.57;;
56122;SDS011;42426;46.104;19.656;2023-09-12T22:39:48;21.35;;;8.55;;
56122;SDS011;42426;46.104;19.656;2023-09-12T22:42:15;20.27;;;9.05;;
56122;SDS011;42426;46.104;19.656;2023-09-12T22:44:41;16.02;;;8.45;;
56122;SDS011;42426;46.104;19.656;2023-09-12T22:47:07;18.33;;;9.30;;
56122;SDS011;42426;46.104;19.656;2023-09-12T22:49:33;16.95;;;8.77;;
56122;SDS011;42426;46.104;19.656;2023-09-12T22:52:00;15.50;;;8.57;;
56122;SDS011;42426;46.104;19.656;2023-09-12T22:54:26;25.13;;;9.25;;
56122;SDS011;42426;46.104;19.656;2023-09-12T22:56:52;17.63;;;8.13;;
56122;SDS011;42426;46.104;19.656;2023-09-12T22:59:18;15.93;;;7.97;;
56122;SDS011;42426;46.104;19.656;2023-09-12T23:01:44;21.97;;;9.30;;
56122;SDS011;42426;46.104;19.656;2023-09-12T23:04:10;18.77;;;8.13;;
56122;SDS011;42426;46.104;19.656;2023-09-12T23:06:36;15.95;;;7.97;;
56122;SDS011;42426;46.104;19.656;2023-09-12T23:09:02;15.02;;;8.15;;
56122;SDS011;42426;46.104;19.656;2023-09-12T23:11:29;14.65;;;7.63;;
56122;SDS011;42426;46.104;19.656;2023-09-12T23:13:55;16.63;;;8.60;;
56122;SDS011;42426;46.104;19.656;2023-09-12T23:16:21;20.17;;;8.70;;
56122;SDS011;42426;46.104;19.656;2023-09-12T23:18:47;16.80;;;8.18;;
56122;SDS011;42426;46.104;19.656;2023-09-12T23:21:13;17.25;;;7.82;;
56122;SDS011;42426;46.104;19.656;2023-09-12T23:23:39;14.43;;;7.78;;
56122;SDS011;42426;46.104;19.656;2023-09-12T23:26:05;15.77;;;7.90;;
56122;SDS011;42426;46.104;19.656;2023-09-12T23:28:32;13.10;;;8.20;;
56122;SDS011;42426;46.104;19.656;2023-09-12T23:31:01;14.95;;;7.75;;
56122;SDS011;42426;46.104;19.656;2023-09-12T23:33:28;13.35;;;7.75;;
56122;SDS011;42426;46.104;19.656;2023-09-12T23:35:54;19.23;;;8.13;;
56122;SDS011;42426;46.104;19.656;2023-09-12T23:38:20;16.48;;;7.75;;
56122;SDS011;42426;46.104;19.656;2023-09-12T23:40:46;16.23;;;8.40;;
56122;SDS011;42426;46.104;19.656;2023-09-12T23:43:14;14.10;;;7.95;;
56122;SDS011;42426;46.104;19.656;2023-09-12T23:45:40;21.67;;;8.67;;
56122;SDS011;42426;46.104;19.656;2023-09-12T23:48:06;16.83;;;7.93;;
56122;SDS011;42426;46.104;19.656;2023-09-12T23:50:32;14.90;;;8.02;;
56122;SDS011;42426;46.104;19.656;2023-09-12T23:52:58;15.80;;;8.23;;